createdAt,value
2023-01-15T00:01:24.780Z,1.67
2023-01-15T00:03:55.317Z,1.70
2023-01-15T00:06:24.272Z,1.67
2023-01-15T00:08:53.160Z,1.50
2023-01-15T00:11:22.057Z,1.45
2023-01-15T00:13:50.726Z,1.52
2023-01-15T00:16:20.395Z,1.77
2023-01-15T00:18:52.247Z,1.63
2023-01-15T00:21:22.554Z,1.50
2023-01-15T00:24:09.101Z,1.52
2023-01-15T00:26:55.644Z,1.38
2023-01-15T00:29:24.636Z,1.60
2023-01-15T00:31:54.806Z,1.48
2023-01-15T00:34:23.283Z,2.00
2023-01-15T00:36:53.456Z,2.20
2023-01-15T00:39:24.000Z,1.70
2023-01-15T00:41:52.618Z,1.70
2023-01-15T00:44:21.414Z,1.95
2023-01-15T00:46:52.264Z,3.40
2023-01-15T00:49:20.815Z,3.80
2023-01-15T00:51:51.086Z,3.85
2023-01-15T00:54:20.926Z,3.97
2023-01-15T00:56:49.379Z,2.63
2023-01-15T00:59:17.800Z,2.42
2023-01-15T01:01:46.380Z,1.75
2023-01-15T01:04:14.856Z,2.22
2023-01-15T01:06:43.313Z,3.25
2023-01-15T01:09:13.531Z,2.92
2023-01-15T01:11:43.438Z,2.95
2023-01-15T01:14:12.583Z,3.25
2023-01-15T01:16:42.109Z,4.10
2023-01-15T01:19:11.837Z,3.83
2023-01-15T01:21:42.177Z,3.70
2023-01-15T01:24:12.452Z,2.97
2023-01-15T01:26:41.007Z,3.28
2023-01-15T01:29:10.809Z,2.60
2023-01-15T01:31:39.240Z,1.90
2023-01-15T01:34:07.723Z,2.08
2023-01-15T01:36:37.443Z,1.65
2023-01-15T01:39:06.853Z,1.50
2023-01-15T01:41:35.662Z,1.80
2023-01-15T01:44:05.797Z,1.85
2023-01-15T01:46:36.643Z,1.77
2023-01-15T01:49:08.405Z,2.10
2023-01-15T01:51:38.560Z,1.90
2023-01-15T01:54:07.171Z,2.28
2023-01-15T01:56:36.679Z,3.38
2023-01-15T01:59:05.657Z,1.83
2023-01-15T02:01:35.577Z,1.80
2023-01-15T02:04:04.537Z,2.47
2023-01-15T02:06:33.384Z,2.70
2023-01-15T02:09:01.885Z,2.35
2023-01-15T02:11:31.096Z,2.85
2023-01-15T02:14:02.464Z,2.10
2023-01-15T02:16:35.487Z,2.35
2023-01-15T02:19:09.635Z,2.40
2023-01-15T02:21:44.084Z,2.42
2023-01-15T02:24:15.019Z,2.35
2023-01-15T02:26:52.883Z,2.33
2023-01-15T02:29:25.794Z,2.75
2023-01-15T02:31:54.724Z,2.75
2023-01-15T02:34:25.914Z,2.80
2023-01-15T02:36:59.031Z,2.92
2023-01-15T02:39:29.698Z,2.95
2023-01-15T02:42:01.181Z,1.98
2023-01-15T02:44:31.414Z,1.77
2023-01-15T02:47:00.430Z,1.90
2023-01-15T02:49:29.134Z,2.10
2023-01-15T02:52:00.703Z,2.40
2023-01-15T02:54:30.482Z,2.15
2023-01-15T02:57:02.181Z,2.90
2023-01-15T02:59:32.476Z,3.10
2023-01-15T03:02:02.310Z,2.00
2023-01-15T03:04:34.047Z,1.88
2023-01-15T03:07:06.848Z,2.00
2023-01-15T03:09:35.761Z,2.28
2023-01-15T03:12:10.416Z,1.40
2023-01-15T03:14:42.344Z,1.60
2023-01-15T03:17:15.193Z,1.45
2023-01-15T03:19:47.545Z,1.77
2023-01-15T03:22:19.869Z,2.90
2023-01-15T03:24:50.713Z,2.55
2023-01-15T03:27:20.525Z,2.53
2023-01-15T03:29:50.102Z,2.85
2023-01-15T03:32:19.979Z,1.70
2023-01-15T03:34:49.810Z,2.60
2023-01-15T03:37:18.377Z,1.52
2023-01-15T03:39:46.924Z,1.80
2023-01-15T03:42:20.713Z,1.52
2023-01-15T03:44:54.679Z,1.67
2023-01-15T03:47:27.899Z,1.23
2023-01-15T03:49:59.416Z,1.40
2023-01-15T03:52:32.287Z,1.35
2023-01-15T03:55:04.892Z,1.40
2023-01-15T03:57:38.077Z,1.40
2023-01-15T04:00:11.237Z,1.52
2023-01-15T04:02:40.317Z,1.88
2023-01-15T04:05:09.168Z,2.10
2023-01-15T04:07:37.705Z,1.67
2023-01-15T04:10:08.962Z,2.22
2023-01-15T04:12:37.381Z,2.25
2023-01-15T04:15:06.465Z,2.28
2023-01-15T04:17:36.408Z,2.25
2023-01-15T04:20:04.863Z,2.22
2023-01-15T04:22:33.357Z,2.08
2023-01-15T04:25:01.795Z,2.03
2023-01-15T04:27:30.197Z,1.90
2023-01-15T04:29:58.632Z,2.28
2023-01-15T04:32:27.486Z,2.33
2023-01-15T04:34:57.305Z,2.60
2023-01-15T04:37:25.714Z,2.70
2023-01-15T04:39:54.287Z,2.85
2023-01-15T04:42:40.418Z,2.85
2023-01-15T04:45:09.452Z,2.65
2023-01-15T04:47:37.898Z,1.70
2023-01-15T04:50:08.234Z,1.58
2023-01-15T04:52:36.672Z,1.65
2023-01-15T04:55:05.225Z,1.75
2023-01-15T04:57:33.633Z,2.10
2023-01-15T05:00:02.083Z,1.40
2023-01-15T05:02:30.654Z,1.52
2023-01-15T05:04:59.151Z,1.30
2023-01-15T05:07:28.963Z,1.55
2023-01-15T05:09:57.416Z,1.60
2023-01-15T05:12:26.298Z,1.60
2023-01-15T05:14:54.751Z,1.90
2023-01-15T05:17:23.142Z,2.25
2023-01-15T05:19:51.605Z,2.08
2023-01-15T05:22:20.031Z,2.63
2023-01-15T05:24:49.830Z,2.42
2023-01-15T05:27:18.222Z,2.20
2023-01-15T05:29:47.937Z,2.00
2023-01-15T05:32:16.389Z,2.05
2023-01-15T05:34:44.940Z,2.35
2023-01-15T05:37:13.445Z,2.00
2023-01-15T05:39:41.887Z,1.67
2023-01-15T05:42:11.693Z,1.60
2023-01-15T05:44:40.160Z,2.00
2023-01-15T05:47:08.651Z,1.60
2023-01-15T05:49:37.182Z,1.67
2023-01-15T05:52:05.645Z,1.50
2023-01-15T05:54:35.747Z,1.58
2023-01-15T05:57:04.993Z,1.95
2023-01-15T05:59:35.175Z,1.58
2023-01-15T06:02:03.608Z,1.75
2023-01-15T06:04:32.416Z,2.00
2023-01-15T06:07:01.151Z,1.23
2023-01-15T06:09:29.801Z,1.73
2023-01-15T06:11:58.375Z,1.58
2023-01-15T06:14:27.162Z,1.98
2023-01-15T06:16:56.974Z,1.63
2023-01-15T06:19:25.428Z,1.52
2023-01-15T06:21:53.857Z,2.20
2023-01-15T06:24:23.088Z,1.80
2023-01-15T06:26:51.484Z,1.60
2023-01-15T06:29:20.556Z,1.48
2023-01-15T06:31:50.045Z,1.60
2023-01-15T06:34:19.998Z,2.40
2023-01-15T06:36:48.437Z,2.10
2023-01-15T06:39:17.012Z,1.63
2023-01-15T06:42:02.900Z,2.17
2023-01-15T06:44:48.907Z,1.50
2023-01-15T06:47:24.655Z,1.60
2023-01-15T06:49:55.759Z,1.80
2023-01-15T06:52:24.664Z,1.98
2023-01-15T06:54:53.429Z,1.52
2023-01-15T06:57:22.222Z,1.85
2023-01-15T06:59:51.072Z,1.55
2023-01-15T07:02:19.587Z,2.40
2023-01-15T07:04:49.062Z,1.83
2023-01-15T07:07:19.534Z,1.67
2023-01-15T07:09:47.991Z,1.90
2023-01-15T07:12:16.789Z,2.00
2023-01-15T07:14:45.315Z,1.95
2023-01-15T07:17:14.100Z,1.90
2023-01-15T07:19:42.684Z,1.40
2023-01-15T07:22:11.696Z,1.65
2023-01-15T07:24:41.707Z,1.95
2023-01-15T07:27:10.239Z,1.55
2023-01-15T07:29:38.693Z,1.88
2023-01-15T07:32:07.527Z,2.05
2023-01-15T07:34:36.051Z,1.23
2023-01-15T07:37:04.508Z,1.40
2023-01-15T07:39:32.988Z,2.08
2023-01-15T07:42:20.555Z,1.58
2023-01-15T07:45:06.751Z,1.60
2023-01-15T07:47:53.119Z,1.70
2023-01-15T07:50:23.232Z,1.52
2023-01-15T07:52:53.388Z,1.65
2023-01-15T07:55:22.542Z,1.60
2023-01-15T07:57:53.786Z,1.90
2023-01-15T08:00:23.869Z,1.73
2023-01-15T08:02:52.635Z,2.13
2023-01-15T08:05:21.594Z,2.10
2023-01-15T08:07:50.566Z,2.00
2023-01-15T08:10:19.866Z,2.00
2023-01-15T08:13:08.593Z,1.92
2023-01-15T08:15:41.081Z,1.77
2023-01-15T08:18:09.814Z,1.98
2023-01-15T08:20:38.572Z,1.70
2023-01-15T08:23:07.031Z,1.65
2023-01-15T08:25:35.467Z,1.50
2023-01-15T08:28:04.591Z,1.40
2023-01-15T08:30:33.053Z,1.65
2023-01-15T08:33:03.674Z,1.40
2023-01-15T08:35:32.235Z,1.63
2023-01-15T08:38:00.714Z,2.35
2023-01-15T08:40:29.176Z,1.90
2023-01-15T08:42:57.594Z,1.60
2023-01-15T08:45:26.159Z,1.45
2023-01-15T08:47:57.082Z,1.40
2023-01-15T08:50:26.919Z,1.35
2023-01-15T08:52:55.450Z,1.40
2023-01-15T08:55:25.962Z,1.60
2023-01-15T08:57:54.427Z,1.33
2023-01-15T09:00:24.514Z,1.55
2023-01-15T09:02:53.727Z,1.23
2023-01-15T09:05:22.152Z,1.20
2023-01-15T09:07:51.975Z,1.10
2023-01-15T09:10:20.369Z,1.17
2023-01-15T09:12:48.955Z,1.20
2023-01-15T09:15:17.403Z,1.77
2023-01-15T09:17:45.864Z,1.23
2023-01-15T09:20:15.325Z,1.10
2023-01-15T09:22:44.322Z,1.50
2023-01-15T09:25:14.113Z,1.10
2023-01-15T09:27:42.545Z,1.20
2023-01-15T09:30:12.800Z,1.60
2023-01-15T09:32:41.277Z,1.40
2023-01-15T09:35:10.206Z,1.75
2023-01-15T09:37:38.730Z,1.83
2023-01-15T09:40:09.227Z,1.80
2023-01-15T09:42:48.379Z,1.90
2023-01-15T09:45:22.861Z,2.20
2023-01-15T09:48:03.515Z,3.25
2023-01-15T09:50:35.397Z,3.30
2023-01-15T09:53:12.640Z,3.67
2023-01-15T09:55:44.578Z,3.65
2023-01-15T09:58:15.631Z,3.42
2023-01-15T10:00:47.552Z,2.97
2023-01-15T10:03:23.288Z,2.63
2023-01-15T10:05:55.625Z,1.90
2023-01-15T10:08:26.302Z,1.80
2023-01-15T10:10:57.269Z,1.80
2023-01-15T10:13:29.660Z,1.52
2023-01-15T10:15:58.724Z,1.85
2023-01-15T10:18:28.161Z,1.30
2023-01-15T10:21:08.499Z,1.40
2023-01-15T10:23:39.099Z,1.27
2023-01-15T10:26:16.610Z,1.48
2023-01-15T10:28:54.831Z,1.52
2023-01-15T10:31:24.665Z,1.40
2023-01-15T10:33:59.469Z,1.73
2023-01-15T10:36:31.248Z,1.42
2023-01-15T10:39:01.880Z,1.63
2023-01-15T10:41:39.311Z,1.83
2023-01-15T10:44:13.362Z,1.63
2023-01-15T10:46:42.746Z,1.70
2023-01-15T10:49:14.645Z,2.13
2023-01-15T10:51:44.535Z,1.63
2023-01-15T10:54:16.719Z,1.40
2023-01-15T10:56:46.511Z,1.42
2023-01-15T10:59:18.732Z,1.50
2023-01-15T11:01:48.879Z,1.50
2023-01-15T11:04:17.395Z,1.58
2023-01-15T11:06:45.847Z,1.48
2023-01-15T11:09:19.948Z,1.17
2023-01-15T11:12:07.464Z,1.65
2023-01-15T11:14:52.060Z,1.58
2023-01-15T11:17:38.257Z,1.50
2023-01-15T11:20:13.469Z,1.30
2023-01-15T11:22:44.195Z,1.42
2023-01-15T11:25:13.315Z,1.90
2023-01-15T11:27:41.777Z,1.30
2023-01-15T11:30:25.274Z,1.30
2023-01-15T11:32:58.179Z,1.50
2023-01-15T11:35:26.994Z,1.58
2023-01-15T11:38:05.523Z,1.98
2023-01-15T11:40:34.279Z,1.40
2023-01-15T11:43:20.250Z,1.60
2023-01-15T11:46:07.127Z,1.38
2023-01-15T11:49:04.492Z,1.40
2023-01-15T11:51:33.332Z,1.73
2023-01-15T11:54:04.169Z,1.67
2023-01-15T11:56:33.722Z,1.33
2023-01-15T11:59:04.229Z,1.30
2023-01-15T12:01:34.687Z,1.45
2023-01-15T12:04:06.241Z,1.33
2023-01-15T12:06:37.938Z,1.27
2023-01-15T12:09:12.297Z,1.30
2023-01-15T12:11:55.093Z,1.50
2023-01-15T12:14:34.319Z,1.58
2023-01-15T12:17:05.744Z,1.30
2023-01-15T12:19:39.474Z,0.98
2023-01-15T12:22:12.443Z,0.95
2023-01-15T12:24:50.960Z,1.35
2023-01-15T12:27:26.477Z,0.90
2023-01-15T12:29:56.843Z,1.40
2023-01-15T12:32:26.951Z,1.10
2023-01-15T12:35:00.281Z,1.50
2023-01-15T12:37:30.203Z,1.20
2023-01-15T12:40:00.939Z,1.70
2023-01-15T12:42:47.349Z,1.25
2023-01-15T12:45:17.716Z,1.40
2023-01-15T12:47:49.837Z,1.40
2023-01-15T12:50:27.384Z,1.63
2023-01-15T12:52:59.512Z,1.60
2023-01-15T12:55:29.910Z,1.50
2023-01-15T12:58:01.193Z,1.50
2023-01-15T13:00:32.606Z,1.33
2023-01-15T13:03:07.313Z,1.42
2023-01-15T13:05:41.556Z,1.30
2023-01-15T13:08:16.199Z,1.00
2023-01-15T13:10:46.143Z,1.15
2023-01-15T13:13:18.135Z,1.45
2023-01-15T13:15:53.226Z,1.40
2023-01-15T13:18:27.389Z,1.30
2023-01-15T13:20:57.193Z,1.35
2023-01-15T13:23:38.609Z,1.40
2023-01-15T13:26:15.969Z,1.35
2023-01-15T13:28:50.622Z,1.25
2023-01-15T13:31:31.872Z,1.40
2023-01-15T13:34:04.796Z,1.17
2023-01-15T13:36:36.223Z,1.45
2023-01-15T13:39:05.768Z,1.75
2023-01-15T13:41:54.141Z,1.23
2023-01-15T13:44:24.466Z,1.40
2023-01-15T13:47:01.803Z,1.30
2023-01-15T13:49:33.328Z,1.65
2023-01-15T13:52:04.570Z,2.10
2023-01-15T13:54:33.581Z,1.20
2023-01-15T13:57:09.132Z,1.55
2023-01-15T13:59:42.137Z,1.20
2023-01-15T14:02:25.570Z,1.50
2023-01-15T14:04:54.200Z,1.52
2023-01-15T14:07:32.275Z,1.60
2023-01-15T14:10:09.789Z,1.40
2023-01-15T14:12:41.213Z,1.35
2023-01-15T14:15:23.859Z,1.70
2023-01-15T14:18:07.346Z,1.80
2023-01-15T14:20:59.426Z,1.60
2023-01-15T14:23:36.712Z,1.35
2023-01-15T14:26:10.927Z,1.45
2023-01-15T14:28:48.779Z,1.60
2023-01-15T14:31:25.522Z,1.58
2023-01-15T14:34:06.340Z,1.60
2023-01-15T14:36:39.399Z,1.25
2023-01-15T14:39:22.822Z,1.80
2023-01-15T14:42:14.798Z,1.55
2023-01-15T14:44:44.571Z,1.55
2023-01-15T14:47:30.274Z,1.70
2023-01-15T14:50:03.844Z,1.40
2023-01-15T14:52:32.878Z,1.65
2023-01-15T14:55:02.771Z,1.35
2023-01-15T14:57:31.254Z,1.40
2023-01-15T15:00:03.924Z,1.58
2023-01-15T15:02:36.522Z,1.50
2023-01-15T15:05:08.968Z,1.90
2023-01-15T15:07:40.426Z,1.77
2023-01-15T15:10:15.982Z,1.50
2023-01-15T15:12:46.082Z,1.50
2023-01-15T15:15:18.289Z,1.83
2023-01-15T15:17:51.919Z,1.77
2023-01-15T15:20:26.791Z,1.63
2023-01-15T15:22:57.250Z,1.92
2023-01-15T15:25:28.967Z,2.20
2023-01-15T15:30:21.227Z,1.85
2023-01-15T15:32:49.647Z,2.28
2023-01-15T15:35:26.240Z,1.80
2023-01-15T15:37:54.948Z,2.10
2023-01-15T15:40:26.208Z,1.75
2023-01-15T15:43:17.460Z,2.13
2023-01-15T15:46:12.266Z,2.03
2023-01-15T15:48:45.574Z,3.08
2023-01-15T15:51:27.532Z,1.90
2023-01-15T15:54:07.057Z,1.65
2023-01-15T15:56:35.987Z,1.27
2023-01-15T15:59:05.505Z,1.70
2023-01-15T16:01:39.954Z,2.10
2023-01-15T16:04:08.471Z,1.40
2023-01-15T16:06:37.264Z,1.40
2023-01-15T16:09:11.273Z,2.13
2023-01-15T16:11:40.603Z,2.60
2023-01-15T16:14:12.484Z,2.38
2023-01-15T16:16:42.307Z,1.92
2023-01-15T16:21:51.193Z,1.80
2023-01-15T16:24:29.556Z,1.50
2023-01-15T16:27:00.979Z,1.38
2023-01-15T16:29:31.727Z,1.92
2023-01-15T16:34:22.606Z,2.42
2023-01-15T16:36:51.165Z,2.10
2023-01-15T16:39:22.542Z,2.90
2023-01-15T16:41:51.759Z,2.58
2023-01-15T16:44:34.478Z,2.05
2023-01-15T16:47:03.835Z,2.17
2023-01-15T16:49:35.146Z,2.42
2023-01-15T16:52:04.605Z,2.38
2023-01-15T16:54:44.112Z,2.38
2023-01-15T16:57:30.353Z,2.63
2023-01-15T17:00:00.254Z,3.20
2023-01-15T17:02:34.849Z,3.40
2023-01-15T17:05:15.994Z,2.78
2023-01-15T17:07:49.108Z,2.50
2023-01-15T17:10:25.247Z,2.85
2023-01-15T17:12:56.111Z,2.72
2023-01-15T17:15:41.244Z,2.50
2023-01-15T17:18:24.643Z,1.92
2023-01-15T17:20:54.762Z,2.55
2023-01-15T17:23:25.751Z,2.67
2023-01-15T17:25:54.566Z,2.80
2023-01-15T17:28:24.559Z,2.20
2023-01-15T17:30:53.979Z,1.90
2023-01-15T17:33:22.645Z,2.05
2023-01-15T17:35:53.074Z,1.83
2023-01-15T17:38:22.861Z,1.77
2023-01-15T17:40:52.871Z,1.52
2023-01-15T17:43:21.287Z,2.20
2023-01-15T17:45:50.173Z,2.03
2023-01-15T17:48:18.867Z,1.20
2023-01-15T17:50:47.500Z,1.70
2023-01-15T17:53:17.031Z,1.33
2023-01-15T17:56:04.537Z,1.50
2023-01-15T17:58:50.563Z,1.95
2023-01-15T18:01:38.713Z,1.83
2023-01-15T18:04:25.689Z,1.92
2023-01-15T18:06:55.596Z,1.58
2023-01-15T18:09:24.916Z,1.48
2023-01-15T18:11:54.879Z,1.50
2023-01-15T18:14:25.733Z,1.35
2023-01-15T18:16:54.861Z,1.83
2023-01-15T18:19:23.334Z,1.40
2023-01-15T18:21:51.766Z,1.48
2023-01-15T18:24:22.167Z,1.20
2023-01-15T18:26:52.583Z,1.48
2023-01-15T18:29:22.411Z,2.40
2023-01-15T18:31:50.861Z,2.25
2023-01-15T18:34:19.314Z,2.35
2023-01-15T18:36:47.744Z,2.22
2023-01-15T18:39:16.204Z,2.50
2023-01-15T18:42:02.470Z,2.42
2023-01-15T18:44:49.826Z,2.10
2023-01-15T18:47:18.936Z,1.60
2023-01-15T18:49:47.978Z,1.80
2023-01-15T18:52:34.927Z,1.60
2023-01-15T18:55:03.484Z,1.40
2023-01-15T18:57:34.550Z,1.40
2023-01-15T19:00:04.391Z,1.58
2023-01-15T19:02:32.909Z,1.42
2023-01-15T19:05:01.460Z,1.25
2023-01-15T19:07:29.927Z,1.38
2023-01-15T19:09:58.410Z,1.65
2023-01-15T19:12:26.886Z,1.85
2023-01-15T19:15:13.003Z,1.90
2023-01-15T19:18:00.187Z,1.95
2023-01-15T19:20:28.612Z,2.97
2023-01-15T19:22:59.847Z,3.20
2023-01-15T19:25:29.385Z,2.90
2023-01-15T19:27:58.144Z,2.20
2023-01-15T19:30:27.094Z,1.63
2023-01-15T19:32:57.074Z,1.70
2023-01-15T19:35:25.567Z,1.67
2023-01-15T19:37:55.198Z,1.67
2023-01-15T19:40:24.313Z,1.55
2023-01-15T19:43:10.574Z,1.60
2023-01-15T19:45:57.544Z,1.75
2023-01-15T19:48:44.914Z,1.67
2023-01-15T19:51:13.775Z,1.75
2023-01-15T19:53:42.200Z,1.40
2023-01-15T19:56:10.827Z,1.60
2023-01-15T19:58:39.362Z,1.70
2023-01-15T20:01:10.160Z,1.58
2023-01-15T20:03:40.054Z,1.83
2023-01-15T20:06:09.545Z,1.10
2023-01-15T20:08:37.961Z,2.00
2023-01-15T20:11:09.545Z,1.52
2023-01-15T20:13:53.538Z,1.23
2023-01-15T20:16:23.130Z,1.85
2023-01-15T20:18:54.975Z,1.60
2023-01-15T20:21:23.435Z,1.58
2023-01-15T20:23:51.875Z,1.40
2023-01-15T20:26:20.379Z,1.52
2023-01-15T20:28:49.552Z,1.85
2023-01-15T20:31:18.766Z,2.15
2023-01-15T20:33:47.479Z,1.73
2023-01-15T20:36:17.449Z,1.80
2023-01-15T20:38:45.841Z,1.40
2023-01-15T20:41:31.897Z,1.90
2023-01-15T20:44:17.985Z,1.75
2023-01-15T20:46:46.469Z,1.75
2023-01-15T20:49:27.605Z,2.03
2023-01-15T20:51:58.393Z,1.88
2023-01-15T20:54:27.718Z,2.00
2023-01-15T20:56:56.683Z,1.65
2023-01-15T20:59:25.175Z,2.05
2023-01-15T21:01:55.161Z,1.90
2023-01-15T21:04:23.886Z,1.70
2023-01-15T21:06:52.552Z,1.70
2023-01-15T21:09:22.336Z,1.45
2023-01-15T21:11:50.815Z,1.70
2023-01-15T21:14:19.265Z,1.40
2023-01-15T21:16:51.293Z,1.60
2023-01-15T21:19:23.447Z,1.80
2023-01-15T21:21:51.996Z,1.70
2023-01-15T21:24:22.077Z,2.50
2023-01-15T21:26:50.712Z,1.80
2023-01-15T21:29:19.220Z,1.60
2023-01-15T21:31:48.012Z,1.58
2023-01-15T21:34:16.666Z,1.73
2023-01-15T21:36:45.193Z,1.83
2023-01-15T21:39:14.549Z,1.92
2023-01-15T21:42:02.183Z,1.60
2023-01-15T21:44:35.541Z,1.60
2023-01-15T21:47:07.816Z,1.85
2023-01-15T21:49:36.356Z,1.88
2023-01-15T21:52:05.975Z,1.60
2023-01-15T21:54:34.909Z,1.48
2023-01-15T21:57:04.812Z,1.70
2023-01-15T21:59:33.385Z,1.60
2023-01-15T22:02:02.559Z,1.55
2023-01-15T22:04:32.012Z,1.52
2023-01-15T22:07:00.455Z,1.60
2023-01-15T22:09:28.959Z,1.70
2023-01-15T22:11:57.477Z,1.77
2023-01-15T22:14:28.400Z,1.15
2023-01-15T22:16:57.643Z,1.65
2023-01-15T22:19:28.033Z,1.50
2023-01-15T22:21:57.400Z,1.90
2023-01-15T22:24:27.714Z,1.92
2023-01-15T22:26:56.372Z,2.10
2023-01-15T22:29:25.607Z,1.90
2023-01-15T22:31:55.779Z,1.60
2023-01-15T22:34:24.891Z,1.25
2023-01-15T22:36:54.099Z,1.30
2023-01-15T22:39:23.352Z,1.50
2023-01-15T22:42:09.708Z,1.13
2023-01-15T22:44:38.373Z,1.83
2023-01-15T22:47:08.298Z,2.40
2023-01-15T22:49:36.712Z,1.30
2023-01-15T22:52:05.506Z,1.33
2023-01-15T22:54:34.088Z,1.70
2023-01-15T22:57:02.652Z,1.40
2023-01-15T22:59:31.208Z,1.30
2023-01-15T23:01:59.815Z,1.17
2023-01-15T23:04:29.818Z,1.35
2023-01-15T23:06:58.471Z,1.30
2023-01-15T23:09:27.237Z,1.42
2023-01-15T23:11:55.847Z,1.30
2023-01-15T23:14:24.570Z,1.35
2023-01-15T23:16:53.088Z,1.40
2023-01-15T23:19:21.793Z,1.40
2023-01-15T23:21:51.643Z,1.20
2023-01-15T23:24:20.322Z,1.40
2023-01-15T23:26:48.957Z,1.25
2023-01-15T23:29:17.462Z,1.23
2023-01-15T23:31:46.012Z,1.65
2023-01-15T23:34:14.487Z,1.40
2023-01-15T23:36:43.017Z,1.48
2023-01-15T23:39:12.861Z,1.20
2023-01-15T23:41:59.175Z,1.20
2023-01-15T23:44:45.307Z,1.30
2023-01-15T23:47:13.976Z,1.35
2023-01-15T23:49:42.548Z,1.52
2023-01-15T23:52:11.044Z,1.48
2023-01-15T23:54:40.915Z,2.10
2023-01-15T23:57:09.471Z,2.33
2023-01-15T23:59:37.892Z,1.98
